Time;durP1;ratioP1;P1;durP2;ratioP2;P2;SDS_P1;SDS_P2;PMS_P1;PMS_P2;Temp;Humidity;BMP_temperature;BMP_pressure;BME280_temperature;BME280_humidity;BME280_pressure;Samples;Min_cycle;Max_cycle;Signal;HPM_P1;HPM_P2
2022/12/16 00:00:25;;;;;;;56.97;45.33;;;;;;;-3.51;100.00;100818.00;5063476;28;20395;-75
2022/12/16 00:02:50;;;;;;;57.83;44.25;;;;;;;-3.45;100.00;100815.78;5060682;28;20487;-74
2022/12/16 00:05:16;;;;;;;57.83;45.40;;;;;;;-3.37;100.00;100813.66;5055374;28;20036;-75
2022/12/16 00:07:41;;;;;;;58.65;45.08;;;;;;;-3.36;100.00;100807.69;5061011;28;20033;-75
2022/12/16 00:10:07;;;;;;;56.80;44.72;;;;;;;-3.31;100.00;100814.03;5062651;28;20503;-76
2022/12/16 00:12:33;;;;;;;56.25;44.45;;;;;;;-3.21;100.00;100816.34;5062356;28;20044;-75
2022/12/16 00:14:58;;;;;;;58.30;45.40;;;;;;;-3.18;100.00;100815.66;5061596;28;20393;-75
2022/12/16 00:17:24;;;;;;;53.47;42.30;;;;;;;-3.07;100.00;100818.84;5063578;28;20391;-75
2022/12/16 00:19:49;;;;;;;57.95;43.95;;;;;;;-3.02;100.00;100812.28;5060245;28;20032;-76
2022/12/16 00:22:14;;;;;;;57.10;43.95;;;;;;;-2.95;100.00;100809.25;5064044;28;20028;-75
2022/12/16 00:24:40;;;;;;;55.65;44.00;;;;;;;-2.92;100.00;100804.25;5064732;28;20464;-75
2022/12/16 00:27:05;;;;;;;54.28;42.45;;;;;;;-2.87;100.00;100802.81;5065945;28;20041;-75
2022/12/16 00:29:30;;;;;;;54.47;44.20;;;;;;;-2.86;100.00;100802.00;5066444;28;20043;-75
2022/12/16 00:31:56;;;;;;;54.95;43.13;;;;;;;-2.85;100.00;100800.31;5064535;28;20029;-75
2022/12/16 00:34:21;;;;;;;53.90;42.58;;;;;;;-2.70;100.00;100800.31;5067215;28;20464;-75
2022/12/16 00:36:46;;;;;;;53.47;42.55;;;;;;;-2.73;100.00;100801.00;5063934;28;20040;-75
2022/12/16 00:39:12;;;;;;;53.17;42.85;;;;;;;-2.68;100.00;100807.34;5066852;28;20021;-75
2022/12/16 00:41:37;;;;;;;52.22;41.45;;;;;;;-2.68;100.00;100802.19;5064870;28;20028;-75
2022/12/16 00:44:03;;;;;;;53.90;41.17;;;;;;;-2.64;100.00;100803.22;5065390;28;20395;-76
2022/12/16 00:46:28;;;;;;;52.28;41.70;;;;;;;-2.56;100.00;100803.66;5066059;28;20032;-74
2022/12/16 00:48:54;;;;;;;50.97;40.60;;;;;;;-2.52;100.00;100801.34;5064106;28;20032;-74
2022/12/16 00:51:19;;;;;;;52.45;40.75;;;;;;;-2.51;100.00;100803.13;5066928;28;20380;-75
2022/12/16 00:53:45;;;;;;;51.80;40.95;;;;;;;-2.47;100.00;100809.38;5063447;28;20423;-75
2022/12/16 00:56:17;;;;;;;50.38;39.83;;;;;;;-2.52;100.00;100809.13;5066179;28;20056;-74
2022/12/16 00:58:42;;;;;;;50.80;40.45;;;;;;;-2.54;100.00;100802.94;5064171;28;20110;-75
2022/12/16 01:01:08;;;;;;;52.80;40.95;;;;;;;-2.56;100.00;100804.56;5065628;28;20025;-75
2022/12/16 01:03:34;;;;;;;52.28;41.30;;;;;;;-2.54;100.00;100813.31;5065299;28;20040;-74
2022/12/16 01:05:59;;;;;;;51.25;40.97;;;;;;;-2.47;100.00;100811.97;5064596;28;20037;-75
2022/12/16 01:08:25;;;;;;;50.92;40.35;;;;;;;-2.42;100.00;100810.50;5066321;28;20081;-75
2022/12/16 01:10:52;;;;;;;52.05;40.53;;;;;;;-2.36;100.00;100812.56;5063333;28;20083;-75
2022/12/16 01:13:19;;;;;;;51.63;40.70;;;;;;;-2.33;100.00;100810.13;5059065;28;20032;-75
2022/12/16 01:15:44;;;;;;;52.45;39.83;;;;;;;-2.35;100.00;100824.69;5066160;28;20037;-66
2022/12/16 01:18:09;;;;;;;51.90;40.85;;;;;;;-2.30;100.00;100828.44;5064434;28;20021;-75
2022/12/16 01:20:35;;;;;;;50.65;40.15;;;;;;;-2.21;100.00;100828.97;5064678;28;20033;-75
2022/12/16 01:23:01;;;;;;;50.67;39.70;;;;;;;-2.20;100.00;100840.19;5065422;28;20033;-64
2022/12/16 01:25:26;;;;;;;50.67;40.30;;;;;;;-2.20;100.00;100838.53;5063639;28;20056;-64
2022/12/16 01:27:52;;;;;;;50.65;40.58;;;;;;;-2.26;100.00;100835.56;5065270;28;20024;-66
2022/12/16 01:30:17;;;;;;;53.60;42.08;;;;;;;-2.32;100.00;100840.41;5062793;28;20067;-64
2022/12/16 01:32:42;;;;;;;53.17;41.15;;;;;;;-2.35;100.00;100845.41;5065994;28;20032;-64
2022/12/16 01:35:09;;;;;;;51.55;41.25;;;;;;;-2.35;100.00;100848.88;5061392;28;20085;-64
2022/12/16 01:37:34;;;;;;;52.50;41.25;;;;;;;-2.34;100.00;100844.63;5064354;28;20075;-64
2022/12/16 01:40:00;;;;;;;50.47;40.25;;;;;;;-2.37;100.00;100850.50;5065373;28;20455;-64
2022/12/16 01:42:29;;;;;;;51.05;40.45;;;;;;;-2.31;100.00;100850.84;5063102;28;20033;-64
2022/12/16 01:44:55;;;;;;;52.53;42.42;;;;;;;-2.28;100.00;100863.09;5065764;28;20423;-64
2022/12/16 01:47:30;;;;;;;50.97;41.33;;;;;;;-2.29;100.00;100866.47;5062815;28;20067;-64
2022/12/16 01:50:00;;;;;;;53.22;42.25;;;;;;;-2.34;100.00;100868.81;5059757;28;20025;-64
2022/12/16 01:52:31;;;;;;;54.63;42.53;;;;;;;-2.39;100.00;100870.22;5065208;28;20024;-64
2022/12/16 01:55:06;;;;;;;52.78;42.72;;;;;;;-2.39;100.00;100869.34;5063062;28;20021;-64
2022/12/16 01:57:39;;;;;;;53.25;42.53;;;;;;;-2.41;100.00;100868.38;5063408;28;20073;-64
2022/12/16 02:00:05;;;;;;;54.03;42.80;;;;;;;-2.44;100.00;100870.81;5063884;28;20055;-64
2022/12/16 02:02:31;;;;;;;55.88;44.47;;;;;;;-2.42;100.00;100876.94;5064721;28;20388;-64
2022/12/16 02:07:40;;;;;;;52.83;42.55;;;;;;;-2.35;100.00;100876.50;5063522;28;20047;-64
2022/12/16 02:10:06;;;;;;;55.28;43.88;;;;;;;-2.33;100.00;100880.06;5063823;28;20104;-64
2022/12/16 02:12:58;;;;;;;53.08;42.25;;;;;;;-2.33;100.00;100885.22;5064127;28;20097;-64
2022/12/16 02:15:40;;;;;;;52.60;43.08;;;;;;;-2.42;100.00;100879.53;5058722;28;20096;-75
2022/12/16 02:18:08;;;;;;;54.70;44.70;;;;;;;-2.43;100.00;100885.50;5063551;28;20024;-74
2022/12/16 02:20:39;;;;;;;54.33;43.40;;;;;;;-2.48;100.00;100891.31;5063466;28;20092;-68
2022/12/16 02:23:05;;;;;;;53.00;42.60;;;;;;;-2.50;100.00;100900.69;5062380;28;20082;-75
2022/12/16 02:25:51;;;;;;;54.60;43.53;;;;;;;-2.52;100.00;100894.56;5062677;28;20033;-74
2022/12/16 02:28:27;;;;;;;55.00;43.75;;;;;;;-2.51;100.00;100906.66;5061828;28;20024;-76
2022/12/16 02:31:01;;;;;;;57.03;44.28;;;;;;;-2.50;100.00;100892.06;5058132;28;20101;-75
2022/12/16 02:33:26;;;;;;;55.50;44.88;;;;;;;-2.54;100.00;100901.31;5059153;28;20108;-75
2022/12/16 02:36:07;;;;;;;57.38;45.50;;;;;;;-2.55;100.00;100904.75;5065208;28;20455;-76
2022/12/16 02:38:48;;;;;;;54.78;44.67;;;;;;;-2.63;100.00;100899.09;5060902;28;20027;-65
2022/12/16 02:41:25;;;;;;;56.25;45.58;;;;;;;-2.58;100.00;100904.53;5062029;28;20035;-66
2022/12/16 02:43:56;;;;;;;55.30;45.10;;;;;;;-2.60;100.00;100907.84;5057632;28;20017;-71
2022/12/16 02:46:26;;;;;;;57.10;45.90;;;;;;;-2.62;100.00;100905.19;5057320;28;20621;-70
2022/12/16 02:48:52;;;;;;;57.03;46.10;;;;;;;-2.61;100.00;100903.47;5057817;28;20057;-68
2022/12/16 02:51:19;;;;;;;58.00;46.28;;;;;;;-2.60;100.00;100906.16;5057348;28;20051;-67
2022/12/16 02:53:45;;;;;;;56.45;46.13;;;;;;;-2.57;100.00;100905.44;5063946;28;20139;-64
2022/12/16 02:56:26;;;;;;;58.10;46.40;;;;;;;-2.59;100.00;100913.13;5062234;28;20036;-69
2022/12/16 02:59:22;;;;;;;57.17;46.25;;;;;;;-2.53;100.00;100910.00;5057719;28;20028;-64
2022/12/16 03:02:01;;;;;;;60.03;47.90;;;;;;;-2.54;100.00;100910.78;5060985;28;20115;-69
2022/12/16 03:04:29;;;;;;;57.22;47.53;;;;;;;-2.63;100.00;100911.16;5058905;28;20021;-71
2022/12/16 03:06:59;;;;;;;59.90;47.88;;;;;;;-2.65;100.00;100908.47;5064288;28;20063;-66
2022/12/16 03:09:30;;;;;;;58.83;49.10;;;;;;;-2.69;100.00;100915.97;5061150;28;20025;-64
2022/12/16 03:11:58;;;;;;;59.85;49.20;;;;;;;-2.70;100.00;100911.59;5064110;28;20487;-65
2022/12/16 03:14:27;;;;;;;61.50;49.65;;;;;;;-2.72;100.00;100910.59;5061239;28;20138;-64
2022/12/16 03:16:54;;;;;;;63.95;51.30;;;;;;;-2.70;100.00;100916.78;5064673;28;20090;-64
2022/12/16 03:19:22;;;;;;;60.50;48.63;;;;;;;-2.72;100.00;100913.19;5056904;28;20029;-65
2022/12/16 03:22:05;;;;;;;65.18;51.45;;;;;;;-2.67;100.00;100925.59;5064672;28;20439;-64
2022/12/16 03:24:31;;;;;;;61.53;50.60;;;;;;;-2.70;100.00;100922.81;5060007;28;20040;-64
2022/12/16 03:27:20;;;;;;;64.60;52.22;;;;;;;-2.73;100.00;100924.34;5063967;28;20386;-64
2022/12/16 03:30:02;;;;;;;64.68;52.58;;;;;;;-2.78;100.00;100923.19;5064019;28;20025;-64
2022/12/16 03:32:31;;;;;;;65.00;51.55;;;;;;;-2.83;100.00;100923.78;5058414;28;20025;-64
2022/12/16 03:35:12;;;;;;;66.60;53.10;;;;;;;-2.78;100.00;100920.59;5062504;28;20029;-64
2022/12/16 03:37:40;;;;;;;66.75;53.03;;;;;;;-2.78;100.00;100928.34;5062931;28;20388;-64
2022/12/16 03:40:10;;;;;;;66.47;52.90;;;;;;;-2.79;100.00;100932.66;5062585;28;20036;-64
2022/12/16 03:42:38;;;;;;;67.22;54.22;;;;;;;-2.79;100.00;100934.34;5062334;28;20025;-64
2022/12/16 03:45:07;;;;;;;67.82;54.42;;;;;;;-2.79;100.00;100936.94;5062615;28;20556;-64
2022/12/16 03:47:36;;;;;;;68.22;53.50;;;;;;;-2.75;100.00;100942.38;5062262;28;20036;-64
2022/12/16 03:50:02;;;;;;;66.30;52.25;;;;;;;-2.70;100.00;100945.25;5062712;28;20127;-64
2022/12/16 03:52:27;;;;;;;64.82;52.60;;;;;;;-2.65;100.00;100943.81;5060903;28;20146;-64
2022/12/16 03:54:52;;;;;;;63.95;54.58;;;;;;;-2.62;100.00;100944.00;5064422;28;20024;-64
2022/12/16 03:57:18;;;;;;;68.35;55.50;;;;;;;-2.59;100.00;100943.28;5060994;28;20029;-75
2022/12/16 03:59:43;;;;;;;67.72;54.72;;;;;;;-2.54;100.00;100942.75;5067263;28;20036;-75
2022/12/16 04:02:09;;;;;;;67.07;53.90;;;;;;;-2.46;100.00;100950.97;5066053;28;20032;-76
2022/12/16 04:04:37;;;;;;;66.32;53.17;;;;;;;-2.43;100.00;100951.16;5065963;28;20025;-74
2022/12/16 04:07:20;;;;;;;65.60;51.90;;;;;;;-2.36;100.00;100962.75;5066450;28;20037;-75
2022/12/16 04:09:47;;;;;;;66.40;52.05;;;;;;;-2.34;100.00;100959.44;5067361;28;20040;-75
2022/12/16 04:26:09;;;;;;;70.93;50.55;;;;;;;-2.15;100.00;100976.06;5064861;28;20095;-74
2022/12/16 04:28:34;;;;;;;72.80;50.15;;;;;;;-2.11;100.00;100986.69;5066134;28;20063;-74
2022/12/16 04:31:00;;;;;;;68.38;49.92;;;;;;;-2.07;100.00;100986.88;5064686;28;20060;-73
